Time;durP1;ratioP1;P1;durP2;ratioP2;P2;SDS_P1;SDS_P2;PMS_P1;PMS_P2;Temp;Humidity;BMP_temperature;BMP_pressure;BME280_temperature;BME280_humidity;BME280_pressure;Samples;Min_cycle;Max_cycle;Signal;HPM_P1;HPM_P2
2022/10/23 00:01:13;;;;;;;1999.90;999.90;;;;;;;11.07;100.00;98575.97;4976703;28;20096;-76
2022/10/23 00:03:38;;;;;;;1999.90;999.90;;;;;;;11.21;100.00;98587.94;4977824;28;20030;-76
2022/10/23 00:06:04;;;;;;;1999.90;999.90;;;;;;;11.17;100.00;98581.38;4975411;28;20070;-76
2022/10/23 00:08:29;;;;;;;1999.90;999.90;;;;;;;11.17;100.00;98579.47;4973013;28;20047;-76
2022/10/23 00:10:55;;;;;;;1999.90;999.90;;;;;;;11.24;100.00;98568.97;4975184;28;20034;-76
2022/10/23 00:13:21;;;;;;;1999.90;999.90;;;;;;;11.32;100.00;98559.34;4981755;28;20030;-75
2022/10/23 00:15:47;;;;;;;1999.90;999.90;;;;;;;11.30;100.00;98567.06;4972344;28;20027;-76
2022/10/23 00:18:12;;;;;;;1999.90;999.90;;;;;;;11.20;100.00;98556.16;4970112;28;20038;-75
2022/10/23 00:20:37;;;;;;;1999.90;999.90;;;;;;;11.32;100.00;98564.00;4957440;28;20021;-76
2022/10/23 00:23:02;;;;;;;1999.90;999.90;;;;;;;11.28;100.00;98567.31;4952702;29;20019;-75
2022/10/23 00:25:28;;;;;;;1999.90;999.90;;;;;;;11.31;100.00;98568.66;4952650;29;20096;-75
2022/10/23 00:27:53;;;;;;;1999.90;999.90;;;;;;;11.29;100.00;98568.97;4960723;28;20035;-75
2022/10/23 00:30:19;;;;;;;1999.90;999.90;;;;;;;11.27;100.00;98578.56;4953117;29;20039;-76
2022/10/23 00:32:44;;;;;;;1999.90;999.90;;;;;;;11.21;100.00;98579.72;4956044;29;20032;-75
2022/10/23 00:35:09;;;;;;;1999.90;999.90;;;;;;;11.27;100.00;98575.84;4957347;29;20493;-75
2022/10/23 00:37:35;;;;;;;1999.90;999.90;;;;;;;11.19;100.00;98574.50;4954894;29;20036;-74
2022/10/23 00:40:00;;;;;;;1999.90;999.90;;;;;;;11.13;100.00;98574.81;4952930;29;20063;-76
2022/10/23 00:42:25;;;;;;;1999.90;999.90;;;;;;;11.22;100.00;98568.47;4952767;29;20035;-75
2022/10/23 00:45:16;;;;;;;1999.90;999.90;;;;;;;11.18;100.00;98577.53;4952643;29;20466;-75
2022/10/23 00:47:41;;;;;;;1999.90;999.90;;;;;;;11.21;100.00;98572.28;4952573;29;20110;-77
2022/10/23 00:50:07;;;;;;;1999.90;999.90;;;;;;;11.20;100.00;98576.16;4952574;29;20117;-76
2022/10/23 00:52:36;;;;;;;1999.90;999.90;;;;;;;11.14;100.00;98577.28;4952497;29;20070;-76
2022/10/23 00:55:01;;;;;;;1999.90;999.90;;;;;;;11.17;100.00;98564.94;4952459;29;20035;-77
2022/10/23 00:57:27;;;;;;;1999.90;999.90;;;;;;;11.14;100.00;98566.34;4952240;29;20441;-76
2022/10/23 00:59:52;;;;;;;1999.90;999.90;;;;;;;11.12;100.00;98570.47;4952005;29;20027;-76
2022/10/23 01:02:17;;;;;;;1999.90;999.90;;;;;;;11.12;100.00;98573.22;4952719;29;20035;-76
2022/10/23 01:04:43;;;;;;;1999.90;999.90;;;;;;;11.11;100.00;98577.03;4964512;28;20491;-78
2022/10/23 01:07:13;;;;;;;1999.90;999.90;;;;;;;11.03;100.00;98574.88;4971826;28;20031;-76
2022/10/23 01:09:47;;;;;;;1999.90;999.90;;;;;;;11.04;100.00;98571.03;4971660;28;20050;-76
2022/10/23 01:12:33;;;;;;;1999.90;999.90;;;;;;;11.13;100.00;98564.69;4971451;28;20039;-76
2022/10/23 01:15:07;;;;;;;1999.90;999.90;;;;;;;11.15;100.00;98556.22;4971661;28;20090;-76
2022/10/23 01:17:50;;;;;;;1999.90;999.90;;;;;;;11.13;100.00;98558.41;4971448;28;20027;-75
2022/10/23 01:20:28;;;;;;;1999.90;999.90;;;;;;;11.01;100.00;98534.13;4970641;28;20553;-76
2022/10/23 01:23:27;;;;;;;1999.90;999.90;;;;;;;11.13;100.00;98555.66;4970401;28;20035;-77
2022/10/23 01:25:58;;;;;;;1999.90;999.90;;;;;;;11.08;100.00;98550.22;4971490;28;20105;-76
2022/10/23 01:28:38;;;;;;;1999.90;999.90;;;;;;;11.05;100.00;98550.78;4971547;28;20420;-77
2022/10/23 01:31:10;;;;;;;1999.90;999.90;;;;;;;11.06;100.00;98541.47;4971261;28;20043;-76
2022/10/23 01:33:42;;;;;;;1999.90;999.90;;;;;;;11.07;100.00;98543.09;4970252;28;20062;-77
2022/10/23 01:36:13;;;;;;;1999.90;999.90;;;;;;;11.10;100.00;98546.09;4971857;28;20428;-75
2022/10/23 01:38:51;;;;;;;1999.90;999.90;;;;;;;11.10;100.00;98542.53;4971413;28;20029;-76
2022/10/23 01:41:27;;;;;;;1999.90;999.90;;;;;;;11.22;100.00;98540.25;4975266;28;20062;-76
2022/10/23 01:44:28;;;;;;;1999.90;999.90;;;;;;;11.19;100.00;98551.78;4975209;28;20031;-76
2022/10/23 01:46:54;;;;;;;1999.90;999.90;;;;;;;11.16;100.00;98535.91;4975081;28;20587;-76
2022/10/23 01:49:21;;;;;;;1999.90;999.90;;;;;;;11.22;100.00;98540.25;4974810;28;20396;-76
2022/10/23 01:51:52;;;;;;;1999.90;999.90;;;;;;;11.25;100.00;98536.94;4969900;28;20039;-76
2022/10/23 01:54:23;;;;;;;1999.90;999.90;;;;;;;11.28;100.00;98536.38;4953410;29;20059;-76
2022/10/23 01:56:50;;;;;;;1999.90;999.90;;;;;;;11.30;100.00;98539.66;4954173;29;20110;-75
2022/10/23 01:59:22;;;;;;;1999.90;999.90;;;;;;;11.39;100.00;98534.38;4955108;29;20062;-76
2022/10/23 02:01:52;;;;;;;1999.90;999.90;;;;;;;11.36;100.00;98529.47;4955220;29;20082;-76
2022/10/23 02:04:26;;;;;;;1999.90;999.90;;;;;;;11.38;100.00;98538.22;4955267;29;20024;-75
2022/10/23 02:06:51;;;;;;;1999.90;999.90;;;;;;;11.30;100.00;98542.41;4955401;29;20050;-76
2022/10/23 02:09:17;;;;;;;1999.90;999.90;;;;;;;11.25;100.00;98540.50;4955195;28;20433;-76
2022/10/23 02:12:01;;;;;;;1999.90;999.90;;;;;;;11.19;100.00;98547.13;4955436;29;20027;-76
2022/10/23 02:14:53;;;;;;;1999.90;999.90;;;;;;;11.14;100.00;98541.69;4955737;29;20468;-75
2022/10/23 02:17:30;;;;;;;1999.90;999.90;;;;;;;11.23;100.00;98530.94;4955465;29;20094;-77
2022/10/23 02:20:16;;;;;;;1999.90;999.90;;;;;;;11.24;100.00;98535.34;4955541;29;20035;-76
2022/10/23 02:22:51;;;;;;;1999.90;999.90;;;;;;;11.18;100.00;98531.00;4955065;29;20046;-76
2022/10/23 02:25:26;;;;;;;1999.90;999.90;;;;;;;11.13;100.00;98520.06;4954875;29;20024;-76
2022/10/23 02:27:55;;;;;;;1999.90;999.90;;;;;;;11.12;100.00;98518.44;4955121;29;20442;-76
2022/10/23 02:30:21;;;;;;;1999.90;999.90;;;;;;;11.12;100.00;98523.94;4955187;29;20038;-76
2022/10/23 02:32:49;;;;;;;1999.90;999.90;;;;;;;11.13;100.00;98526.38;4954995;29;20031;-75
2022/10/23 02:35:16;;;;;;;1999.90;999.90;;;;;;;11.02;100.00;98530.28;4955502;29;20037;-76
2022/10/23 02:37:42;;;;;;;1999.90;999.90;;;;;;;11.03;100.00;98526.44;4954795;29;20023;-76
2022/10/23 02:40:10;;;;;;;1999.90;999.90;;;;;;;11.14;100.00;98527.19;4955130;29;20058;-77
2022/10/23 02:42:41;;;;;;;1999.90;999.90;;;;;;;11.13;100.00;98517.31;4958460;28;20019;-76
2022/10/23 02:45:44;;;;;;;1999.90;999.90;;;;;;;11.09;100.00;98521.72;4968503;29;20038;-76
2022/10/23 02:48:18;;;;;;;1999.90;999.90;;;;;;;11.14;100.00;98529.91;4956535;29;20035;-76
2022/10/23 02:51:00;;;;;;;1999.90;999.90;;;;;;;11.16;100.00;98520.31;4955224;28;20146;-76
2022/10/23 02:53:47;;;;;;;1999.90;999.90;;;;;;;11.11;100.00;98516.81;4954318;29;20049;-76
2022/10/23 02:56:33;;;;;;;1999.90;999.90;;;;;;;11.12;100.00;98518.44;4954436;29;20039;-76
2022/10/23 02:59:09;;;;;;;1999.90;999.90;;;;;;;10.99;100.00;98522.66;4954842;29;20571;-80
2022/10/23 03:01:48;;;;;;;1999.90;999.90;;;;;;;11.05;100.00;98526.16;4954316;29;20027;-77
2022/10/23 03:04:16;;;;;;;1999.90;999.90;;;;;;;11.09;100.00;98529.94;4954639;28;20038;-76
2022/10/23 03:06:42;;;;;;;1999.90;999.90;;;;;;;11.10;100.00;98537.06;4954633;29;20027;-77
2022/10/23 03:09:08;;;;;;;1999.90;999.90;;;;;;;11.04;100.00;98516.28;4954159;29;20082;-77
2022/10/23 03:11:34;;;;;;;1999.90;999.90;;;;;;;11.00;100.00;98517.97;4953104;28;20445;-77
2022/10/23 03:14:00;;;;;;;1999.90;999.90;;;;;;;11.03;100.00;98520.13;4953449;29;20039;-76
2022/10/23 03:16:25;;;;;;;1999.90;999.90;;;;;;;10.92;100.00;98524.88;4960048;28;20030;-77
2022/10/23 03:18:51;;;;;;;1999.90;999.90;;;;;;;11.05;100.00;98531.63;4972916;28;20056;-77
2022/10/23 03:21:16;;;;;;;1999.90;999.90;;;;;;;11.06;100.00;98522.28;4972847;28;20022;-77
2022/10/23 03:23:42;;;;;;;1999.90;999.90;;;;;;;11.06;100.00;98533.25;4972614;28;20045;-76
2022/10/23 03:26:07;;;;;;;1999.90;999.90;;;;;;;10.97;100.00;98543.16;4973014;28;20432;-76
2022/10/23 03:28:34;;;;;;;1999.90;999.90;;;;;;;11.06;100.00;98538.72;4965689;28;20429;-77
2022/10/23 03:31:01;;;;;;;1999.90;999.90;;;;;;;11.01;100.00;98530.56;4953992;29;20508;-77
2022/10/23 03:33:26;;;;;;;1999.90;999.90;;;;;;;10.95;100.00;98534.44;4953570;29;20042;-76
2022/10/23 03:35:52;;;;;;;1999.90;999.90;;;;;;;11.00;100.00;98524.25;4953758;29;20492;-75
2022/10/23 03:38:17;;;;;;;1999.90;999.90;;;;;;;10.96;100.00;98525.13;4953436;29;20034;-76
2022/10/23 03:40:42;;;;;;;1999.90;999.90;;;;;;;10.93;100.00;98520.22;4953480;28;20034;-76
2022/10/23 03:43:08;;;;;;;1999.90;999.90;;;;;;;10.89;100.00;98519.97;4953482;29;20027;-74
2022/10/23 03:45:33;;;;;;;1999.90;999.90;;;;;;;10.92;100.00;98518.56;4953462;28;20023;-77
2022/10/23 03:47:58;;;;;;;1999.90;999.90;;;;;;;10.94;100.00;98517.19;4952169;29;20023;-75
2022/10/23 03:50:24;;;;;;;1999.90;999.90;;;;;;;10.94;100.00;98513.63;4951995;29;20031;-75
2022/10/23 03:52:49;;;;;;;1999.90;999.90;;;;;;;10.94;100.00;98508.16;4984069;28;20070;-77
2022/10/23 03:55:15;;;;;;;1999.90;999.90;;;;;;;10.88;100.00;98509.28;4991559;28;20543;-76
2022/10/23 03:57:40;;;;;;;1999.90;999.90;;;;;;;10.84;100.00;98511.75;4991564;28;20415;-76
2022/10/23 04:00:07;;;;;;;1999.90;999.90;;;;;;;10.87;100.00;98513.16;4967818;28;20032;-75
2022/10/23 04:02:32;;;;;;;1999.90;999.90;;;;;;;10.83;100.00;98512.06;4954021;28;20366;-77
2022/10/23 04:04:57;;;;;;;1999.90;999.90;;;;;;;10.85;100.00;98509.84;4957019;29;20081;-76
2022/10/23 04:07:23;;;;;;;1999.90;999.90;;;;;;;10.87;100.00;98504.94;4954346;29;20067;-77
2022/10/23 04:09:48;;;;;;;1999.90;999.90;;;;;;;10.87;100.00;98507.66;4953161;29;20035;-78
2022/10/23 04:12:13;;;;;;;1999.90;999.90;;;;;;;10.86;100.00;98514.22;4952956;29;20027;-77
2022/10/23 04:14:39;;;;;;;1999.90;999.90;;;;;;;10.98;100.00;98517.44;4952898;29;20042;-76
2022/10/23 04:17:04;;;;;;;1999.90;999.90;;;;;;;10.95;100.00;98512.53;4952786;29;20106;-76
2022/10/23 04:19:30;;;;;;;1999.90;999.90;;;;;;;10.92;100.00;98507.63;4952788;29;20146;-77
2022/10/23 04:21:56;;;;;;;1999.90;999.90;;;;;;;10.94;100.00;98497.19;4952774;29;20046;-76
2022/10/23 04:24:22;;;;;;;1999.90;999.90;;;;;;;10.87;100.00;98491.25;4952879;29;20023;-77
2022/10/23 04:26:47;;;;;;;1999.90;999.90;;;;;;;10.86;100.00;98497.81;4951558;29;20031;-76
2022/10/23 04:29:13;;;;;;;1999.90;999.90;;;;;;;10.87;100.00;98486.56;4953004;28;20046;-76
2022/10/23 04:31:38;;;;;;;1999.90;999.90;;;;;;;11.02;100.00;98499.34;4952666;29;20011;-77
2022/10/23 04:34:03;;;;;;;1999.90;999.90;;;;;;;11.01;100.00;98505.91;4952430;29;20041;-76
2022/10/23 04:36:29;;;;;;;1999.90;999.90;;;;;;;11.11;100.00;98505.84;4952392;29;20027;-77
2022/10/23 04:38:54;;;;;;;1999.90;999.90;;;;;;;11.15;100.00;98515.94;4952537;29;20028;-75
2022/10/23 04:41:19;;;;;;;1999.90;999.90;;;;;;;11.10;100.00;98515.97;4952679;29;20063;-75
2022/10/23 04:43:45;;;;;;;1999.90;999.90;;;;;;;11.08;100.00;98509.16;4952426;29;20487;-77
2022/10/23 04:46:10;;;;;;;1999.90;999.90;;;;;;;11.09;100.00;98502.56;4978439;28;20070;-77
2022/10/23 04:48:35;;;;;;;1999.90;999.90;;;;;;;11.00;100.00;98496.88;4960870;28;20477;-76
2022/10/23 04:51:03;;;;;;;1999.90;999.90;;;;;;;10.96;100.00;98500.50;4952779;29;20023;-77
2022/10/23 04:53:29;;;;;;;1999.90;999.90;;;;;;;10.93;100.00;98501.84;4957141;29;20035;-75
2022/10/23 04:55:56;;;;;;;1999.90;999.90;;;;;;;11.00;100.00;98499.63;4958142;28;20027;-77
2022/10/23 04:58:23;;;;;;;1999.90;999.90;;;;;;;11.00;100.00;98499.63;4952576;29;20031;-78
2022/10/23 05:00:49;;;;;;;1999.90;999.90;;;;;;;11.01;100.00;98484.03;4954310;28;20531;-76
2022/10/23 05:03:16;;;;;;;1999.90;999.90;;;;;;;10.93;100.00;98484.63;4990518;28;20041;-75
2022/10/23 05:05:41;;;;;;;1999.90;999.90;;;;;;;10.90;100.00;98482.47;4990769;28;20030;-77
2022/10/23 05:08:08;;;;;;;1999.90;999.90;;;;;;;10.83;100.00;98484.69;4990635;28;20043;-75
2022/10/23 05:10:34;;;;;;;1999.90;999.90;;;;;;;10.86;100.00;98492.34;4990316;28;20037;-76
2022/10/23 05:12:59;;;;;;;1999.90;999.90;;;;;;;10.91;100.00;98476.69;4990951;28;20066;-75
2022/10/23 05:15:24;;;;;;;1999.90;999.90;;;;;;;10.90;100.00;98494.22;4994724;28;20121;-77
2022/10/23 05:17:56;;;;;;;1999.90;999.90;;;;;;;10.85;100.00;98493.44;4994883;28;20373;-77
2022/10/23 05:20:25;;;;;;;1999.90;999.90;;;;;;;10.92;100.00;98488.47;4995106;28;20487;-77
2022/10/23 05:22:54;;;;;;;1999.90;999.90;;;;;;;10.79;100.00;98487.19;4994842;28;20038;-77
2022/10/23 05:25:19;;;;;;;1999.90;999.90;;;;;;;10.87;100.00;98483.03;4994589;28;20091;-78
2022/10/23 05:27:44;;;;;;;1999.90;999.90;;;;;;;10.90;100.00;98486.00;4994556;28;20540;-77
2022/10/23 05:30:10;;;;;;;1999.90;999.90;;;;;;;10.80;100.00;98494.31;4994784;28;20030;-77
2022/10/23 05:32:37;;;;;;;1999.90;999.90;;;;;;;10.77;100.00;98484.72;4993808;28;20026;-78
2022/10/23 05:35:07;;;;;;;1999.90;999.90;;;;;;;10.74;100.00;98488.00;4994833;28;20049;-78
2022/10/23 05:37:33;;;;;;;1999.90;999.90;;;;;;;10.64;100.00;98485.38;4994906;28;20534;-77
2022/10/23 05:39:58;;;;;;;1999.90;999.90;;;;;;;10.62;100.00;98489.47;4994785;28;20026;-77
2022/10/23 05:42:23;;;;;;;1999.90;999.90;;;;;;;10.66;100.00;98501.47;4994673;28;20026;-76
2022/10/23 05:44:49;;;;;;;1999.90;999.90;;;;;;;10.72;100.00;98482.03;4994584;28;20130;-77
2022/10/23 05:47:17;;;;;;;1999.90;999.90;;;;;;;10.67;100.00;98471.13;4994565;28;20033;-78
2022/10/23 05:49:42;;;;;;;1999.90;999.90;;;;;;;10.64;100.00;98496.31;4994605;28;20037;-76
2022/10/23 05:52:10;;;;;;;1999.90;999.90;;;;;;;10.77;100.00;98496.78;4994447;28;20430;-77
2022/10/23 05:54:36;;;;;;;1999.90;999.90;;;;;;;10.80;100.00;98486.09;4994323;28;20480;-77
2022/10/23 05:57:01;;;;;;;1999.90;999.90;;;;;;;10.80;100.00;98498.94;4994265;28;20033;-77
2022/10/23 05:59:26;;;;;;;1999.90;999.90;;;;;;;10.73;100.00;98502.81;4994470;28;20105;-78
2022/10/23 06:01:52;;;;;;;1999.90;999.90;;;;;;;10.94;100.00;98499.94;4994167;28;20101;-77
2022/10/23 06:04:17;;;;;;;1999.90;999.90;;;;;;;10.93;100.00;98501.06;4994373;28;20033;-78
2022/10/23 06:06:45;;;;;;;1999.90;999.90;;;;;;;11.02;100.00;98504.81;4994629;28;20536;-77
2022/10/23 06:09:10;;;;;;;1999.90;999.90;;;;;;;10.99;100.00;98500.75;4994047;28;20050;-77
2022/10/23 06:11:35;;;;;;;1999.90;999.90;;;;;;;11.02;100.00;98485.66;4994098;28;20502;-77
2022/10/23 06:14:01;;;;;;;1999.90;999.90;;;;;;;11.03;100.00;98500.97;4993971;28;20476;-77
2022/10/23 06:16:26;;;;;;;1999.90;999.90;;;;;;;11.08;100.00;98512.72;4993832;28;20030;-76
2022/10/23 06:18:52;;;;;;;1999.90;999.90;;;;;;;11.16;100.00;98498.41;4994033;28;20037;-78
2022/10/23 06:21:18;;;;;;;1999.90;999.90;;;;;;;11.11;100.00;98514.06;4993998;28;20022;-77
2022/10/23 06:23:44;;;;;;;1999.90;999.90;;;;;;;11.15;100.00;98517.88;4993904;28;20031;-77
2022/10/23 06:26:12;;;;;;;1999.90;999.90;;;;;;;11.12;100.00;98526.66;4991412;28;20042;-77
2022/10/23 06:28:38;;;;;;;1999.90;999.90;;;;;;;11.15;100.00;98526.09;4993812;28;20032;-77
2022/10/23 06:31:04;;;;;;;1999.90;999.90;;;;;;;11.13;100.00;98531.00;4993734;28;20113;-77
2022/10/23 06:33:30;;;;;;;1999.90;999.90;;;;;;;11.07;100.00;98521.19;4993550;28;20030;-77
2022/10/23 06:35:55;;;;;;;1999.90;999.90;;;;;;;11.07;100.00;98532.97;4994175;28;20546;-77
2022/10/23 06:38:21;;;;;;;1999.90;999.90;;;;;;;11.14;100.00;98533.47;4993683;28;20022;-78
2022/10/23 06:40:52;;;;;;;1999.90;999.90;;;;;;;11.14;100.00;98532.66;4993730;28;20460;-77
2022/10/23 06:43:17;;;;;;;1999.90;999.90;;;;;;;11.24;100.00;98532.59;4993374;28;20460;-79
2022/10/23 06:45:43;;;;;;;1999.90;999.90;;;;;;;11.29;100.00;98527.88;4993367;28;20060;-76
2022/10/23 06:48:08;;;;;;;1999.90;999.90;;;;;;;11.31;100.00;98529.53;4978119;28;20082;-78
2022/10/23 06:50:35;;;;;;;1999.90;999.90;;;;;;;11.36;100.00;98546.75;4964256;28;20030;-77
2022/10/23 06:53:01;;;;;;;1999.90;999.90;;;;;;;11.41;100.00;98545.88;4973832;28;20688;-75
2022/10/23 06:55:28;;;;;;;1999.90;999.90;;;;;;;11.51;100.00;98540.31;4955696;28;20090;-77
2022/10/23 06:57:53;;;;;;;1999.90;999.90;;;;;;;11.49;100.00;98545.28;4954719;29;20047;-77
2022/10/23 07:00:20;;;;;;;1999.90;999.90;;;;;;;11.52;100.00;98550.19;4961057;29;20055;-78
2022/10/23 07:02:45;;;;;;;1999.90;999.90;;;;;;;11.57;100.00;98545.47;4958200;29;20485;-79
2022/10/23 07:05:11;;;;;;;1999.90;999.90;;;;;;;11.56;100.00;98549.28;4962393;29;20027;-78
2022/10/23 07:07:36;;;;;;;1999.90;999.90;;;;;;;11.59;100.00;98551.47;4972536;28;20072;-77
2022/10/23 07:10:02;;;;;;;1999.90;999.90;;;;;;;11.53;100.00;98551.78;4973965;28;20023;-76
2022/10/23 07:12:28;;;;;;;1999.90;999.90;;;;;;;11.54;100.00;98550.69;4974080;28;20066;-78
2022/10/23 07:14:53;;;;;;;1999.90;999.90;;;;;;;11.54;100.00;98535.06;4973375;28;20030;-78
2022/10/23 07:17:18;;;;;;;1999.90;999.90;;;;;;;11.65;100.00;98544.03;4978941;28;20023;-76
2022/10/23 07:19:45;;;;;;;1999.90;999.90;;;;;;;11.84;100.00;98546.91;4979698;28;20129;-78
2022/10/23 07:22:11;;;;;;;1999.90;999.90;;;;;;;11.95;100.00;98556.66;4972043;28;20116;-78
2022/10/23 07:24:37;;;;;;;1999.90;999.90;;;;;;;11.94;100.00;98557.75;4979753;28;20038;-77
2022/10/23 07:27:03;;;;;;;1999.90;999.90;;;;;;;11.92;100.00;98549.84;4978503;28;20044;-77
2022/10/23 07:29:29;;;;;;;1999.90;999.90;;;;;;;11.90;100.00;98551.25;4974674;28;20022;-77
2022/10/23 07:31:56;;;;;;;1999.90;999.90;;;;;;;11.91;100.00;98550.94;4972173;28;20038;-77
2022/10/23 07:34:21;;;;;;;1999.90;999.90;;;;;;;11.96;100.00;98547.34;4974815;28;20114;-77
2022/10/23 07:36:47;;;;;;;1999.90;999.90;;;;;;;11.81;100.00;98557.31;4974740;28;20058;-75
2022/10/23 07:39:12;;;;;;;1999.90;999.90;;;;;;;11.95;100.00;98565.72;4972302;28;20535;-77
2022/10/23 07:41:38;;;;;;;1999.90;999.90;;;;;;;11.93;100.00;98547.91;4972059;28;20054;-77
2022/10/23 07:44:03;;;;;;;1999.90;999.90;;;;;;;12.04;100.00;98557.66;4971911;28;20041;-76
2022/10/23 07:46:29;;;;;;;1999.90;999.90;;;;;;;11.95;100.00;98543.78;4970876;28;20030;-76
2022/10/23 07:48:54;;;;;;;1999.90;999.90;;;;;;;11.98;100.00;98565.13;4972220;28;20108;-77
2022/10/23 07:51:20;;;;;;;1999.90;999.90;;;;;;;11.98;100.00;98578.00;4971911;28;20027;-77
2022/10/23 07:53:45;;;;;;;1999.90;999.90;;;;;;;12.04;100.00;98579.59;4971825;28;20066;-77
2022/10/23 07:56:16;;;;;;;1999.90;999.90;;;;;;;12.05;100.00;98567.53;4972396;28;20042;-77
2022/10/23 07:58:42;;;;;;;1999.90;999.90;;;;;;;12.01;100.00;98550.00;4981062;28;20752;-77
2022/10/23 08:01:19;;;;;;;1999.90;999.90;;;;;;;11.97;100.00;98559.91;4962472;28;20042;-77
2022/10/23 08:03:45;;;;;;;1999.90;999.90;;;;;;;12.01;100.00;98563.72;4951757;29;20042;-76
2022/10/23 08:06:10;;;;;;;1999.90;999.90;;;;;;;11.98;100.00;98547.84;4952057;28;20023;-78
2022/10/23 08:08:36;;;;;;;1999.90;999.90;;;;;;;11.86;100.00;98556.47;4950918;29;20049;-77
2022/10/23 08:11:01;;;;;;;1999.90;999.90;;;;;;;11.98;100.00;98558.81;4979752;28;20030;-78
2022/10/23 08:13:27;;;;;;;1999.90;999.90;;;;;;;12.01;100.00;98555.50;4988649;28;20499;-77
2022/10/23 08:15:52;;;;;;;1999.90;999.90;;;;;;;11.99;100.00;98560.47;4973194;28;20480;-77
2022/10/23 08:18:21;;;;;;;1999.90;999.90;;;;;;;11.90;100.00;98551.25;4978643;28;20030;-74
2022/10/23 08:20:47;;;;;;;1999.90;999.90;;;;;;;11.86;100.00;98558.41;4977215;28;20023;-75
2022/10/23 08:23:16;;;;;;;1999.90;999.90;;;;;;;11.90;100.00;98553.97;4981533;28;20026;-76
2022/10/23 08:25:42;;;;;;;1999.90;999.90;;;;;;;11.84;100.00;98568.84;4975474;28;20041;-79
2022/10/23 08:28:18;;;;;;;1999.90;999.90;;;;;;;11.94;100.00;98575.03;4975210;28;20396;-76
2022/10/23 08:30:43;;;;;;;1999.90;999.90;;;;;;;12.05;100.00;98582.06;4983345;28;20018;-77
2022/10/23 08:33:08;;;;;;;1999.90;999.90;;;;;;;12.12;100.00;98565.28;4969836;28;20073;-78
2022/10/23 08:35:35;;;;;;;1999.90;999.90;;;;;;;12.10;100.00;98564.72;4974298;28;20049;-78
2022/10/23 08:38:04;;;;;;;1999.90;999.90;;;;;;;12.08;100.00;98556.81;4971556;28;20035;-78
2022/10/23 08:40:30;;;;;;;1999.90;999.90;;;;;;;12.08;100.00;98562.28;4982460;28;20089;-79
2022/10/23 08:43:23;;;;;;;1999.90;999.90;;;;;;;12.06;100.00;98559.00;4976111;28;20099;-76
2022/10/23 08:45:57;;;;;;;1999.90;999.90;;;;;;;12.28;100.00;98550.25;4971432;28;20038;-77
2022/10/23 08:48:30;;;;;;;1999.90;999.90;;;;;;;12.35;100.00;98564.44;4970985;28;20065;-78
2022/10/23 08:51:06;;;;;;;1999.90;999.90;;;;;;;12.46;100.00;98555.00;4983021;28;20037;-78
2022/10/23 08:53:43;;;;;;;1999.90;999.90;;;;;;;12.65;100.00;98558.63;4976812;28;20045;-77
2022/10/23 08:56:19;;;;;;;1999.90;999.90;;;;;;;12.93;100.00;98567.84;4977787;28;20049;-77
2022/10/23 08:58:52;;;;;;;1999.90;999.90;;;;;;;13.09;100.00;98566.56;4982523;28;20492;-77
2022/10/23 09:01:40;;;;;;;1999.90;999.90;;;;;;;13.09;100.00;98563.00;4977220;28;20056;-77
2022/10/23 09:04:12;;;;;;;1999.90;999.90;;;;;;;13.04;100.00;98565.75;4974675;28;20054;-79
2022/10/23 09:07:10;;;;;;;1999.90;999.90;;;;;;;12.94;100.00;98565.94;4974036;28;20038;-78
2022/10/23 09:10:12;;;;;;;1999.90;999.90;;;;;;;13.02;100.00;98555.09;4975184;28;20046;-78
2022/10/23 09:12:38;;;;;;;1999.90;999.90;;;;;;;13.05;100.00;98572.91;4971893;28;20399;-77
2022/10/23 09:15:22;;;;;;;1999.90;999.90;;;;;;;13.02;100.00;98576.25;4975468;28;21358;-77
2022/10/23 09:17:52;;;;;;;1999.90;999.90;;;;;;;12.82;100.00;98564.41;4977658;28;20479;-78
2022/10/23 09:20:22;;;;;;;1999.90;999.90;;;;;;;12.86;100.00;98562.72;4973412;28;20027;-75
2022/10/23 09:22:59;;;;;;;1999.90;999.90;;;;;;;12.94;100.00;98565.94;4980318;28;20093;-75
2022/10/23 09:25:30;;;;;;;1999.90;999.90;;;;;;;13.16;100.00;98558.75;4978075;28;20039;-75
2022/10/23 09:27:59;;;;;;;1999.90;999.90;;;;;;;13.27;100.00;98549.25;4974616;28;20031;-77
2022/10/23 09:30:27;;;;;;;1999.90;999.90;;;;;;;13.83;100.00;98556.59;4974926;28;20404;-76
2022/10/23 09:32:53;;;;;;;1999.90;999.90;;;;;;;14.19;100.00;98557.56;4977233;28;20022;-74
2022/10/23 09:35:22;;;;;;;1999.90;999.90;;;;;;;14.38;100.00;98563.84;4977734;28;20033;-75
2022/10/23 09:37:52;;;;;;;1999.90;999.90;;;;;;;14.09;100.00;98576.22;4975109;28;20026;-74
2022/10/23 09:40:29;;;;;;;1999.90;999.90;;;;;;;13.87;100.00;98574.13;4977697;28;20395;-75
2022/10/23 09:43:12;;;;;;;1999.90;999.90;;;;;;;13.76;100.00;98570.72;4975525;28;20225;-76
2022/10/23 09:45:41;;;;;;;1999.90;999.90;;;;;;;13.72;100.00;98561.44;4974112;28;20057;-75
2022/10/23 09:48:18;;;;;;;1999.90;999.90;;;;;;;13.83;100.00;98573.91;4980177;28;20023;-75
2022/10/23 09:50:51;;;;;;;1999.90;999.90;;;;;;;13.78;100.00;98559.44;4978844;28;20450;-75
2022/10/23 09:53:30;;;;;;;1999.90;999.90;;;;;;;13.53;100.00;98563.44;4963998;28;20038;-76
2022/10/23 09:55:58;;;;;;;1999.90;999.90;;;;;;;13.34;100.00;98559.88;4962845;28;20036;-75
2022/10/23 09:58:34;;;;;;;1999.90;999.90;;;;;;;13.24;100.00;98562.78;4960832;28;20469;-74
2022/10/23 10:00:59;;;;;;;1999.90;999.90;;;;;;;13.26;100.00;98560.53;4970033;28;20085;-74
2022/10/23 10:03:25;;;;;;;1999.90;999.90;;;;;;;13.15;100.00;98556.31;4973867;28;20019;-75
2022/10/23 10:05:57;;;;;;;1999.90;999.90;;;;;;;13.22;100.00;98567.72;4973331;28;20054;-76
2022/10/23 10:08:39;;;;;;;1999.90;999.90;;;;;;;13.26;100.00;98553.09;4965661;28;20050;-75
2022/10/23 10:11:19;;;;;;;1999.90;999.90;;;;;;;13.28;100.00;98552.81;4964532;28;20077;-75
2022/10/23 10:14:02;;;;;;;1999.90;999.90;;;;;;;13.25;100.00;98561.66;4972367;28;20500;-77
2022/10/23 10:16:36;;;;;;;1999.90;999.90;;;;;;;13.33;100.00;98556.31;4975159;28;20043;-77
2022/10/23 10:19:38;;;;;;;1999.90;999.90;;;;;;;13.28;100.00;98552.81;4972920;28;20035;-77
2022/10/23 10:22:29;;;;;;;1999.90;999.90;;;;;;;13.57;100.00;98558.13;4973653;28;20031;-76
2022/10/23 10:25:19;;;;;;;1999.90;999.90;;;;;;;14.05;100.00;98559.50;4972215;28;20042;-75
2022/10/23 10:28:20;;;;;;;1999.90;999.90;;;;;;;14.47;100.00;98566.72;4978827;28;20096;-74
2022/10/23 10:31:12;;;;;;;1999.90;999.90;;;;;;;14.81;100.00;98564.34;4946504;28;20039;-75
2022/10/23 10:33:53;;;;;;;1999.90;999.90;;;;;;;15.75;100.00;98547.88;4983394;28;20026;-75
2022/10/23 10:36:24;;;;;;;1999.90;999.90;;;;;;;15.77;100.00;98544.78;4992611;28;20511;-75
2022/10/23 10:38:57;;;;;;;1999.90;999.90;;;;;;;16.12;100.00;98554.06;4974565;28;20078;-77
2022/10/23 10:41:43;;;;;;;1999.90;999.90;;;;;;;15.91;100.00;98551.03;4973476;28;20023;-78
2022/10/23 10:44:33;;;;;;;1999.90;999.90;;;;;;;15.23;100.00;98534.75;4972817;28;20125;-74
2022/10/23 10:47:18;;;;;;;1999.90;999.90;;;;;;;15.18;100.00;98540.38;4971442;28;20429;-75
2022/10/23 10:49:58;;;;;;;1999.90;999.90;;;;;;;15.72;100.00;98540.22;4971556;28;20026;-76
2022/10/23 10:52:32;;;;;;;1999.90;999.90;;;;;;;16.29;100.00;98549.44;4977587;28;20101;-75
2022/10/23 10:55:16;;;;;;;1999.90;999.90;;;;;;;15.93;100.00;98540.50;4969557;28;20030;-76
2022/10/23 10:57:50;;;;;;;1999.90;999.90;;;;;;;16.07;100.00;98532.94;4970541;28;20057;-76
2022/10/23 11:00:19;;;;;;;1999.90;999.90;;;;;;;15.63;100.00;98531.03;4971965;28;20035;-76